Time;durP1;ratioP1;P1;durP2;ratioP2;P2;SDS_P1;SDS_P2;PMS_P1;PMS_P2;Temp;Humidity;BMP_temperature;BMP_pressure;BME280_temperature;BME280_humidity;BME280_pressure;Samples;Min_cycle;Max_cycle;Signal;HPM_P1;HPM_P2
2023/09/16 00:00:19;;;;;;;0.40;0.40;;;24.60;54.90;;;24.87;40.77;95104.66;5078080;28;20226;-21
2023/09/16 00:02:48;;;;;;;0.30;0.30;;;24.60;54.80;;;24.86;40.97;95097.69;5077912;28;20192;-20
2023/09/16 00:05:15;;;;;;;0.40;0.40;;;24.50;56.10;;;24.88;40.86;95100.13;5078158;28;20192;-22
2023/09/16 00:07:43;;;;;;;0.40;0.40;;;24.50;55.00;;;24.88;40.83;95100.91;5077817;28;20207;-21
2023/09/16 00:10:10;;;;;;;0.30;0.30;;;24.60;55.10;;;24.92;40.73;95101.16;5077829;28;20295;-21
2023/09/16 00:12:37;;;;;;;0.30;0.30;;;24.60;55.10;;;24.93;40.84;95100.88;5077688;28;20271;-21
2023/09/16 00:15:05;;;;;;;0.35;0.35;;;24.60;55.20;;;24.97;41.14;95094.94;5076810;28;20200;-21
2023/09/16 00:17:35;;;;;;;0.55;0.55;;;24.60;55.20;;;24.99;41.16;95098.97;5077886;28;20211;-21
2023/09/16 00:20:11;;;;;;;0.40;0.40;;;24.60;55.10;;;25.06;41.18;95101.31;5077480;28;20204;-22
2023/09/16 00:22:38;;;;;;;0.30;0.30;;;24.60;55.20;;;25.06;40.87;95093.25;5077653;28;20215;-21
2023/09/16 00:25:06;;;;;;;0.40;0.40;;;24.70;55.30;;;25.10;41.08;95094.31;5076917;28;20287;-21
2023/09/16 00:27:35;;;;;;;0.30;0.30;;;24.70;55.30;;;25.10;40.92;95095.13;5077424;28;20310;-22
2023/09/16 00:30:03;;;;;;;0.50;0.50;;;24.80;55.30;;;25.10;40.84;95092.44;5077548;28;20208;-21
2023/09/16 00:32:31;;;;;;;0.35;0.35;;;24.80;55.20;;;25.13;41.06;95096.44;5076451;28;20220;-20
2023/09/16 00:34:59;;;;;;;0.40;0.40;;;24.80;55.20;;;25.16;41.01;95092.38;5077439;28;20255;-21
2023/09/16 00:37:26;;;;;;;0.32;0.32;;;24.80;55.20;;;25.18;41.03;95091.06;5077760;28;20657;-21
2023/09/16 00:39:54;;;;;;;0.40;0.40;;;24.90;55.10;;;25.19;40.96;95091.84;5076542;28;20211;-23
2023/09/16 00:42:21;;;;;;;0.30;0.30;;;24.90;55.10;;;25.21;41.10;95090.47;5076320;28;20654;-21
2023/09/16 00:44:48;;;;;;;0.55;0.55;;;24.90;55.10;;;25.22;40.98;95092.09;5076337;28;20276;-21
2023/09/16 00:47:15;;;;;;;0.30;0.30;;;24.90;55.10;;;25.24;40.73;95095.28;5077135;28;20704;-21
2023/09/16 00:49:43;;;;;;;0.47;0.47;;;24.90;55.00;;;25.21;40.74;95087.00;5077075;28;20527;-21
2023/09/16 00:52:10;;;;;;;0.40;0.40;;;25.00;55.10;;;25.23;40.81;95088.31;5076903;28;20256;-22
2023/09/16 00:54:38;;;;;;;0.40;0.40;;;24.90;54.90;;;25.22;40.73;95084.03;5077291;28;20217;-21
2023/09/16 00:57:11;;;;;;;0.40;0.40;;;25.00;55.10;;;25.25;40.78;95088.84;5076868;28;20210;-23
2023/09/16 00:59:39;;;;;;;0.40;0.40;;;25.00;55.00;;;25.26;40.97;95087.75;5076973;28;20200;-21
2023/09/16 01:02:11;;;;;;;0.50;0.50;;;25.00;55.00;;;25.29;40.75;95083.69;5076145;28;20636;-21
2023/09/16 01:04:40;;;;;;;0.50;0.50;;;25.00;55.10;;;25.31;40.71;95086.13;5076850;28;20605;-21
2023/09/16 01:07:07;;;;;;;0.38;0.38;;;25.00;56.20;;;25.30;41.09;95082.63;5075818;28;20228;-24
2023/09/16 01:09:36;;;;;;;0.40;0.40;;;25.10;55.00;;;25.34;40.97;95083.66;5043015;28;20211;-22
2023/09/16 01:12:04;;;;;;;0.40;0.40;;;25.00;55.00;;;25.33;40.76;95079.38;5075514;28;20229;-22
2023/09/16 01:14:33;;;;;;;0.30;0.30;;;25.10;55.00;;;25.35;41.00;95074.53;5075646;28;20692;-21
2023/09/16 01:17:08;;;;;;;0.30;0.30;;;25.10;54.90;;;25.35;40.85;95074.53;5075509;28;20198;-22
2023/09/16 01:19:47;;;;;;;0.60;0.60;;;25.10;54.90;;;25.36;40.79;95067.28;5075681;28;20190;-20
2023/09/16 01:22:15;;;;;;;0.40;0.40;;;25.10;54.90;;;25.38;40.68;95073.19;5076698;28;20560;-21
2023/09/16 01:24:51;;;;;;;0.30;0.30;;;25.10;54.90;;;25.37;40.94;95079.63;5076398;28;20290;-21
2023/09/16 01:27:19;;;;;;;0.35;0.35;;;25.10;54.80;;;25.38;40.91;95079.34;5075428;28;20199;-20
2023/09/16 01:29:48;;;;;;;0.30;0.30;;;25.10;54.80;;;25.37;40.80;95076.94;5076512;28;20310;-22
2023/09/16 01:32:20;;;;;;;0.30;0.30;;;25.10;54.70;;;25.38;40.55;95071.31;5075288;28;20208;-21
2023/09/16 01:34:52;;;;;;;0.50;0.50;;;25.20;54.80;;;25.38;40.89;95065.16;5075635;28;20247;-23
2023/09/16 01:37:23;;;;;;;0.30;0.30;;;25.20;54.80;;;25.37;40.86;95060.81;5058665;28;20227;-20
2023/09/16 01:39:57;;;;;;;0.45;0.45;;;25.20;54.60;;;25.38;40.98;95070.50;5075322;28;20659;-21
2023/09/16 01:42:29;;;;;;;0.50;0.50;;;25.10;54.70;;;25.35;40.48;95062.97;5075497;28;20596;-22
2023/09/16 01:44:56;;;;;;;0.30;0.30;;;25.10;54.60;;;25.35;40.93;95074.53;5076280;28;20190;-21
2023/09/16 01:47:23;;;;;;;0.40;0.40;;;25.10;54.60;;;25.34;40.81;95072.13;5074944;28;20208;-21
2023/09/16 01:49:50;;;;;;;0.40;0.40;;;25.10;54.60;;;25.33;40.68;95073.19;5075729;28;20638;-22
2023/09/16 01:52:17;;;;;;;0.40;0.40;;;25.10;54.60;;;25.32;40.63;95074.31;5076350;28;20209;-21
2023/09/16 01:54:44;;;;;;;0.20;0.20;;;25.10;54.60;;;25.32;40.71;95071.63;5074799;28;20207;-21
2023/09/16 01:57:11;;;;;;;0.30;0.30;;;25.10;54.70;;;25.32;40.94;95071.63;5075939;28;20215;-21
2023/09/16 01:59:38;;;;;;;0.30;0.30;;;25.10;54.70;;;25.31;40.75;95061.94;5074611;28;20196;-21
2023/09/16 02:02:06;;;;;;;0.30;0.30;;;25.10;54.70;;;25.28;40.44;95063.31;5075657;28;20243;-22
2023/09/16 02:04:33;;;;;;;0.30;0.30;;;25.10;54.70;;;25.25;40.79;95066.56;5074776;28;20232;-21
2023/09/16 02:07:00;;;;;;;0.40;0.40;;;25.10;54.60;;;25.25;40.89;95070.06;5091536;28;20528;-21
2023/09/16 02:09:27;;;;;;;0.40;0.40;;;25.00;54.60;;;25.24;40.74;95073.81;5074499;28;20201;-21
2023/09/16 02:11:55;;;;;;;0.40;0.40;;;25.10;54.80;;;25.26;40.61;95070.84;5091300;28;20202;-23
2023/09/16 02:14:22;;;;;;;0.40;0.40;;;25.00;54.70;;;25.24;40.84;95075.69;5074578;28;20274;-23
2023/09/16 02:16:49;;;;;;;0.50;0.50;;;25.00;54.70;;;25.25;40.71;95069.25;5075419;28;20276;-23
2023/09/16 02:19:16;;;;;;;0.30;0.30;;;25.00;54.80;;;25.23;40.70;95074.91;5074224;28;20219;-22
2023/09/16 02:21:43;;;;;;;0.40;0.40;;;25.00;54.80;;;25.24;40.48;95073.00;5075312;28;20254;-24
2023/09/16 02:24:11;;;;;;;0.50;0.50;;;25.00;54.70;;;25.20;40.71;95069.28;5074303;28;20210;-22
2023/09/16 02:26:38;;;;;;;0.30;0.30;;;25.00;54.70;;;25.21;40.70;95070.91;5074424;28;20530;-22
2023/09/16 02:29:05;;;;;;;0.30;0.30;;;25.00;54.80;;;25.20;40.59;95066.59;5076018;28;20251;-22
2023/09/16 02:31:32;;;;;;;0.43;0.43;;;25.00;54.80;;;25.16;40.72;95071.72;5074935;28;20205;-23
2023/09/16 02:33:59;;;;;;;0.30;0.30;;;25.00;54.80;;;25.16;40.62;95068.22;5075169;28;20197;-22
2023/09/16 02:36:27;;;;;;;0.40;0.40;;;24.90;54.60;;;25.09;40.82;95065.88;5074167;28;20539;-22
2023/09/16 02:38:54;;;;;;;0.50;0.50;;;24.90;54.60;;;25.08;40.48;95064.28;5075032;28;20235;-21
2023/09/16 02:41:21;;;;;;;0.50;0.50;;;24.90;54.60;;;25.08;40.83;95066.97;5074700;28;20561;-23
2023/09/16 02:43:49;;;;;;;0.30;0.30;;;24.90;54.80;;;25.07;40.57;95063.47;5090852;28;20637;-24
2023/09/16 02:46:17;;;;;;;0.30;0.30;;;24.90;54.90;;;25.07;40.94;95062.66;5090959;28;20333;-22
2023/09/16 02:48:44;;;;;;;0.30;0.30;;;24.90;55.00;;;25.08;41.03;95070.47;5075015;28;20209;-24
2023/09/16 02:51:11;;;;;;;0.30;0.30;;;24.80;55.00;;;25.12;41.09;95069.88;5073880;28;20673;-22
2023/09/16 02:53:39;;;;;;;0.40;0.40;;;24.90;55.10;;;25.10;40.93;95070.97;5073989;28;20201;-22
2023/09/16 02:56:09;;;;;;;0.35;0.35;;;24.90;55.00;;;25.11;40.80;95066.41;5073975;28;20656;-22
2023/09/16 02:58:36;;;;;;;0.40;0.40;;;24.90;55.10;;;25.09;41.25;95066.66;5073880;28;20294;-22
2023/09/16 03:01:13;;;;;;;0.50;0.50;;;24.90;55.00;;;25.08;40.90;95064.28;5073721;28;20708;-22
2023/09/16 03:03:43;;;;;;;0.50;0.50;;;24.90;54.90;;;25.06;40.74;95061.06;5057618;28;20188;-21
2023/09/16 03:06:12;;;;;;;0.40;0.40;;;24.90;54.90;;;25.08;40.89;95064.28;5074737;28;20197;-22
2023/09/16 03:08:39;;;;;;;0.38;0.38;;;24.90;54.90;;;25.07;40.99;95066.16;5090666;28;20209;-21
2023/09/16 03:11:06;;;;;;;0.30;0.30;;;24.90;55.00;;;25.09;40.94;95057.81;5074934;28;20281;-21
2023/09/16 03:13:36;;;;;;;0.40;0.40;;;24.90;55.10;;;25.08;40.82;95059.72;5073677;28;20232;-22
2023/09/16 03:16:15;;;;;;;0.50;0.50;;;24.90;55.10;;;25.09;41.08;95058.63;5078500;28;20602;-23
2023/09/16 03:18:50;;;;;;;0.30;0.30;;;24.90;55.00;;;25.10;40.99;95056.75;5077801;28;20220;-22
2023/09/16 03:21:19;;;;;;;0.40;0.40;;;24.90;55.00;;;25.11;41.13;95061.03;5061204;28;20507;-22
2023/09/16 03:23:48;;;;;;;0.40;0.40;;;24.90;55.10;;;25.11;41.20;95063.72;5077813;28;20201;-23
2023/09/16 03:26:15;;;;;;;0.32;0.32;;;24.90;55.10;;;25.11;40.91;95053.00;5078921;28;20203;-22
2023/09/16 03:28:46;;;;;;;0.40;0.40;;;24.90;55.00;;;25.10;40.94;95054.06;5078928;28;20198;-21
2023/09/16 03:31:16;;;;;;;0.38;0.38;;;24.90;55.00;;;25.13;40.98;95058.06;5078963;28;20256;-22
2023/09/16 03:33:43;;;;;;;0.30;0.30;;;24.90;55.00;;;25.10;41.01;95057.53;5077563;28;20224;-21
2023/09/16 03:36:10;;;;;;;0.60;0.60;;;24.90;55.00;;;25.15;41.07;95056.69;5061037;28;20261;-24
2023/09/16 03:38:50;;;;;;;0.40;0.40;;;24.90;55.10;;;25.14;41.21;95052.41;5077355;28;20231;-21
2023/09/16 03:41:18;;;;;;;0.40;0.40;;;24.90;55.10;;;25.14;40.97;95040.88;5077313;28;20221;-22
2023/09/16 03:43:55;;;;;;;0.30;0.30;;;24.90;55.00;;;25.15;41.04;95045.97;5077403;28;20202;-22
2023/09/16 03:46:24;;;;;;;0.30;0.30;;;24.90;55.10;;;25.14;40.95;95039.00;5077297;28;20202;-21
2023/09/16 03:48:52;;;;;;;0.40;0.40;;;24.90;55.00;;;25.16;41.02;95039.53;5077167;28;20201;-22
2023/09/16 03:51:21;;;;;;;0.30;0.30;;;24.90;55.10;;;25.16;41.20;95039.53;5077105;28;20549;-21
2023/09/16 03:53:50;;;;;;;0.30;0.30;;;24.90;55.00;;;25.17;41.17;95040.31;5077142;28;20216;-21
2023/09/16 03:56:17;;;;;;;0.40;0.40;;;25.00;55.20;;;25.16;41.04;95036.03;5093969;28;20202;-21
2023/09/16 03:58:45;;;;;;;0.40;0.40;;;24.90;55.00;;;25.17;41.07;95030.38;5076996;28;20233;-21
2023/09/16 04:01:12;;;;;;;0.30;0.30;;;25.00;55.10;;;25.16;41.16;95028.78;5078245;28;20215;-21
2023/09/16 04:03:39;;;;;;;0.30;0.30;;;24.90;55.00;;;25.17;41.13;95032.25;5077021;28;20612;-21
2023/09/16 04:06:06;;;;;;;0.30;0.30;;;24.90;55.00;;;25.19;41.13;95035.47;5077925;28;20262;-22
2023/09/16 04:08:34;;;;;;;0.40;0.40;;;25.00;55.10;;;25.16;41.01;95026.09;5077039;28;20190;-22
2023/09/16 04:11:09;;;;;;;0.30;0.30;;;25.00;55.10;;;25.17;41.10;95034.94;5077989;28;20189;-22
2023/09/16 04:13:37;;;;;;;0.40;0.40;;;25.00;55.00;;;25.16;41.06;95028.78;5093502;28;20583;-22
2023/09/16 04:16:05;;;;;;;0.50;0.50;;;25.00;55.00;;;25.15;40.87;95027.19;5077703;28;20198;-23
2023/09/16 04:18:34;;;;;;;0.40;0.40;;;25.00;55.00;;;25.17;41.29;95030.38;5076667;28;20253;-22
2023/09/16 04:21:02;;;;;;;0.50;0.50;;;25.00;55.00;;;25.16;41.16;95030.66;5076543;28;20292;-22
2023/09/16 04:23:30;;;;;;;0.30;0.30;;;25.00;55.00;;;25.14;41.05;95035.53;5060481;28;20197;-22
2023/09/16 04:26:01;;;;;;;0.40;0.40;;;25.00;55.00;;;25.17;41.22;95043.00;5076326;28;20202;-22
2023/09/16 04:28:29;;;;;;;0.57;0.57;;;25.00;55.00;;;25.16;41.07;95041.38;5076816;28;20635;-22
2023/09/16 04:30:58;;;;;;;0.40;0.40;;;25.00;55.00;;;25.14;41.09;95046.25;5059896;28;20197;-22
2023/09/16 04:33:30;;;;;;;0.43;0.43;;;25.00;55.00;;;25.14;41.12;95047.03;5078029;28;20177;-22
2023/09/16 04:35:57;;;;;;;0.30;0.30;;;25.00;55.10;;;25.14;41.04;95038.19;5059885;28;20229;-21
2023/09/16 04:38:25;;;;;;;0.40;0.40;;;25.00;54.90;;;25.14;40.83;95046.25;5076254;28;20215;-21
2023/09/16 04:40:55;;;;;;;0.40;0.40;;;25.00;54.90;;;25.12;40.69;95043.03;5076469;28;20193;-23
2023/09/16 04:43:25;;;;;;;0.40;0.40;;;24.90;54.80;;;25.13;40.84;95050.03;5076544;28;20590;-20
2023/09/16 04:45:54;;;;;;;0.38;0.38;;;24.90;54.80;;;25.13;40.91;95053.50;5077715;28;20628;-21
2023/09/16 04:48:42;;;;;;;0.40;0.40;;;24.90;54.80;;;25.08;40.91;95048.16;5076746;28;20586;-21
2023/09/16 04:51:09;;;;;;;0.30;0.30;;;24.90;54.70;;;25.05;40.84;95054.13;5075981;28;20238;-22
2023/09/16 04:53:36;;;;;;;0.30;0.30;;;24.90;54.70;;;25.02;40.67;95051.97;5076075;28;20224;-22
2023/09/16 04:56:10;;;;;;;0.30;0.30;;;24.90;54.80;;;25.01;40.64;95059.25;5076046;28;20296;-21
2023/09/16 04:58:49;;;;;;;0.50;0.50;;;24.80;54.70;;;24.99;40.96;95061.38;5076560;28;20241;-24
2023/09/16 05:01:18;;;;;;;0.30;0.30;;;24.80;54.90;;;24.96;41.00;95050.41;5075885;28;20594;-23
2023/09/16 05:03:45;;;;;;;0.40;0.40;;;24.80;54.90;;;24.92;40.77;95061.69;5076738;28;20202;-21
2023/09/16 05:06:13;;;;;;;0.40;0.40;;;24.80;54.90;;;24.92;41.26;95059.00;5092704;28;20695;-22
2023/09/16 05:08:40;;;;;;;0.52;0.52;;;24.80;54.90;;;24.89;40.98;95059.59;5076752;28;20216;-25
2023/09/16 05:11:07;;;;;;;0.30;0.30;;;24.80;54.90;;;24.86;40.91;95060.13;5092426;28;20202;-23
2023/09/16 05:13:45;;;;;;;0.40;0.40;;;24.70;56.10;;;24.85;40.94;95055.88;5075551;28;20237;-21
2023/09/16 05:16:12;;;;;;;0.30;0.30;;;24.70;54.90;;;24.83;40.99;95057.19;5075651;28;20214;-21
2023/09/16 05:18:40;;;;;;;0.40;0.40;;;24.70;55.00;;;24.82;41.01;95056.41;5075513;28;20235;-22
2023/09/16 05:21:07;;;;;;;0.40;0.40;;;24.70;55.10;;;24.83;41.29;95060.69;5075421;28;20243;-21
2023/09/16 05:23:34;;;;;;;0.40;0.40;;;24.60;55.10;;;24.82;40.95;95058.31;5075857;28;20229;-21
2023/09/16 05:26:05;;;;;;;0.35;0.35;;;24.60;55.10;;;24.80;41.10;95058.56;5092677;28;20192;-21
2023/09/16 05:28:35;;;;;;;0.50;0.50;;;24.60;55.20;;;24.82;41.27;95058.31;5075426;28;20226;-21
2023/09/16 05:31:04;;;;;;;0.30;0.30;;;24.60;55.30;;;24.81;41.21;95062.06;5075149;28;20754;-26
2023/09/16 05:33:34;;;;;;;0.30;0.30;;;24.60;55.30;;;24.83;41.38;95067.94;5059314;28;20186;-21
2023/09/16 05:36:02;;;;;;;0.55;0.55;;;24.60;55.40;;;24.83;41.37;95063.38;5076254;28;20205;-23
2023/09/16 05:38:30;;;;;;;0.32;0.32;;;24.60;55.40;;;24.84;41.35;95064.16;5074299;28;20645;-23
2023/09/16 05:40:57;;;;;;;0.38;0.38;;;24.60;55.50;;;24.85;41.26;95065.78;5058543;28;20597;-23
2023/09/16 05:43:24;;;;;;;0.40;0.40;;;24.60;55.40;;;24.85;41.39;95060.41;5075130;28;20212;-21
2023/09/16 05:45:52;;;;;;;0.35;0.35;;;24.70;55.60;;;24.85;41.40;95063.91;5075138;28;20262;-22
2023/09/16 05:48:20;;;;;;;0.40;0.40;;;24.60;55.50;;;24.85;41.53;95061.22;5075139;28;20199;-21
2023/09/16 05:50:58;;;;;;;0.50;0.50;;;24.70;55.60;;;24.87;41.60;95056.38;5074830;28;20593;-21
2023/09/16 05:53:30;;;;;;;0.38;0.38;;;24.70;55.50;;;24.86;41.47;95067.38;5075779;28;20644;-21
2023/09/16 05:56:04;;;;;;;0.30;0.30;;;24.70;55.60;;;24.89;41.41;95061.44;5091837;28;20314;-23
2023/09/16 05:58:33;;;;;;;0.30;0.30;;;24.70;55.60;;;24.90;41.30;95066.56;5074799;28;20281;-21
2023/09/16 06:01:01;;;;;;;0.30;0.30;;;24.70;55.70;;;24.92;41.72;95067.06;5091699;28;20194;-21
2023/09/16 06:03:28;;;;;;;0.38;0.38;;;24.70;55.60;;;24.94;41.54;95058.75;5074796;28;20222;-21
2023/09/16 06:05:59;;;;;;;0.60;0.60;;;24.70;55.60;;;24.93;41.67;95057.94;5074660;28;20198;-21
2023/09/16 06:08:26;;;;;;;0.30;0.30;;;24.80;55.70;;;24.97;41.44;95062.75;5075111;28;20232;-35
2023/09/16 06:10:56;;;;;;;0.30;0.30;;;24.80;55.70;;;24.96;41.85;95061.94;5074670;28;20517;-21
2023/09/16 06:13:25;;;;;;;0.40;0.40;;;24.80;55.70;;;25.00;41.68;95062.19;5074467;28;20298;-20
2023/09/16 06:15:53;;;;;;;0.30;0.30;;;24.80;55.70;;;25.00;41.53;95056.81;5074539;28;20228;-21
2023/09/16 06:18:23;;;;;;;0.40;0.40;;;24.90;55.80;;;25.01;41.71;95059.25;5074742;28;20540;-23
2023/09/16 06:20:50;;;;;;;0.40;0.40;;;24.80;55.70;;;25.01;41.65;95059.25;5075347;28;20189;-21
2023/09/16 06:23:17;;;;;;;0.40;0.40;;;24.90;55.80;;;25.01;41.63;95058.41;5075934;28;20198;-23
2023/09/16 06:25:47;;;;;;;0.30;0.30;;;24.90;55.70;;;25.02;41.69;95050.06;5059015;28;20299;-24
2023/09/16 06:28:14;;;;;;;0.28;0.28;;;24.90;55.70;;;25.03;41.84;95057.06;5057864;28;20194;-21
2023/09/16 06:30:41;;;;;;;0.30;0.30;;;24.90;55.70;;;25.02;41.80;95042.03;5075779;28;20585;-21
2023/09/16 06:33:10;;;;;;;0.30;0.30;;;24.90;55.70;;;25.04;41.74;95050.59;5091263;28;20296;-21
2023/09/16 06:35:37;;;;;;;0.30;0.30;;;24.90;55.70;;;25.05;42.07;95038.78;5075463;28;20196;-21
2023/09/16 06:38:04;;;;;;;0.30;0.30;;;24.90;55.80;;;25.07;41.77;95039.31;5075422;28;20207;-21
2023/09/16 06:40:31;;;;;;;0.30;0.30;;;24.90;55.80;;;25.08;41.70;95038.25;5091072;28;20310;-23
2023/09/16 06:42:59;;;;;;;0.25;0.25;;;24.90;55.80;;;25.10;41.75;95044.13;5074099;28;20202;-22
2023/09/16 06:45:28;;;;;;;0.32;0.32;;;24.90;55.90;;;25.12;41.81;95045.72;5090987;28;20192;-21
2023/09/16 06:47:56;;;;;;;0.40;0.40;;;24.90;55.80;;;25.12;41.82;95049.22;5074817;28;20283;-21
2023/09/16 06:50:23;;;;;;;0.40;0.40;;;25.00;55.90;;;25.13;41.74;95048.13;5075188;28;20273;-21
2023/09/16 06:52:51;;;;;;;0.40;0.40;;;25.00;55.90;;;25.13;41.82;95050.81;5074929;28;20263;-21
2023/09/16 06:55:18;;;;;;;0.40;0.40;;;25.00;55.90;;;25.16;41.97;95054.81;5075323;28;20231;-22
2023/09/16 06:57:45;;;;;;;0.50;0.50;;;25.00;55.80;;;25.16;41.89;95049.44;5075377;28;20201;-21
2023/09/16 07:00:30;;;;;;;0.30;0.30;;;25.00;55.90;;;25.17;41.68;95051.03;5073950;28;20368;-21
2023/09/16 07:02:58;;;;;;;0.30;0.30;;;25.00;55.90;;;25.18;42.01;95052.66;5075003;28;20206;-21
2023/09/16 07:05:30;;;;;;;0.30;0.30;;;25.10;55.90;;;25.19;42.12;95047.00;5074925;28;20189;-21
2023/09/16 07:08:00;;;;;;;0.60;0.60;;;25.10;56.00;;;25.21;41.91;95044.84;5075429;28;20504;-21
2023/09/16 07:10:28;;;;;;;0.50;0.50;;;25.10;56.00;;;25.21;42.18;95046.72;5075442;28;20605;-21
2023/09/16 07:12:55;;;;;;;0.30;0.30;;;25.10;56.10;;;25.23;41.96;95044.56;5090399;28;20571;-21
2023/09/16 07:15:23;;;;;;;0.28;0.28;;;25.10;56.00;;;25.23;42.17;95044.56;5074112;28;20201;-21
2023/09/16 07:17:50;;;;;;;0.30;0.30;;;25.10;56.00;;;25.24;42.25;95052.34;5074110;28;20202;-26
2023/09/16 07:20:17;;;;;;;0.30;0.30;;;25.10;56.00;;;25.25;42.23;95056.63;5074864;28;20237;-21
2023/09/16 07:22:44;;;;;;;0.30;0.30;;;25.20;56.20;;;25.29;42.22;95058.75;5074925;28;20200;-21
2023/09/16 07:25:12;;;;;;;0.40;0.40;;;25.10;56.00;;;25.29;42.19;95056.84;5074650;28;20196;-22
2023/09/16 07:27:39;;;;;;;0.30;0.30;;;25.20;56.20;;;25.29;42.30;95059.53;5073763;28;20203;-21
2023/09/16 07:30:07;;;;;;;0.50;0.50;;;25.20;56.10;;;25.33;42.14;95062.44;5074623;28;20289;-21
2023/09/16 07:32:36;;;;;;;0.35;0.35;;;25.20;56.20;;;25.33;42.21;95071.31;5073520;28;20293;-23
2023/09/16 07:35:03;;;;;;;0.30;0.30;;;25.20;56.20;;;25.35;42.06;95068.34;5074687;28;20290;-21
2023/09/16 07:37:31;;;;;;;0.38;0.38;;;25.20;56.10;;;25.36;42.27;95076.13;5074839;28;20215;-22
2023/09/16 07:39:58;;;;;;;0.30;0.30;;;25.20;56.20;;;25.38;42.21;95075.88;5074443;28;20548;-23
2023/09/16 07:42:25;;;;;;;0.30;0.30;;;25.20;56.20;;;25.39;42.45;95078.28;5074590;28;20215;-21
2023/09/16 07:44:52;;;;;;;0.38;0.38;;;25.30;56.30;;;25.40;42.20;95077.19;5074756;28;20501;-22
2023/09/16 07:47:19;;;;;;;0.30;0.30;;;25.30;56.30;;;25.40;42.15;95073.69;5073806;28;20191;-21
2023/09/16 07:49:46;;;;;;;0.30;0.30;;;25.30;56.30;;;25.41;42.47;95068.06;5074489;28;20191;-21
2023/09/16 07:52:13;;;;;;;0.35;0.35;;;25.30;56.40;;;25.43;42.24;95062.41;5074872;28;20227;-20
2023/09/16 07:54:42;;;;;;;0.30;0.30;;;25.30;56.30;;;25.45;42.47;95070.16;5074672;28;20205;-21
2023/09/16 07:57:09;;;;;;;0.40;0.40;;;25.30;56.30;;;25.48;42.27;95061.56;5074745;28;20193;-21
2023/09/16 07:59:36;;;;;;;0.30;0.30;;;25.30;57.60;;;25.48;42.51;95054.31;5074391;28;20699;-21
2023/09/16 08:02:04;;;;;;;0.30;0.30;;;25.40;56.40;;;25.48;42.67;95051.63;5077865;28;20207;-21
2023/09/16 08:04:31;;;;;;;0.40;0.40;;;25.40;56.50;;;25.49;42.37;95047.84;5078457;28;20205;-23
2023/09/16 08:06:58;;;;;;;0.30;0.30;;;25.40;56.50;;;25.50;42.39;95062.88;5078532;28;20248;-21
2023/09/16 08:09:26;;;;;;;0.30;0.30;;;25.40;56.40;;;25.52;42.58;95054.53;5078193;28;20262;-21
2023/09/16 08:11:53;;;;;;;0.30;0.30;;;25.40;56.50;;;25.53;42.16;95048.88;5078272;28;20212;-21
2023/09/16 08:14:20;;;;;;;0.28;0.28;;;25.40;56.50;;;25.53;42.40;95046.19;5078150;28;20207;-21
2023/09/16 08:16:47;;;;;;;0.30;0.30;;;25.40;56.50;;;25.56;42.38;95052.88;5078021;28;20222;-21
2023/09/16 08:19:16;;;;;;;0.40;0.40;;;25.40;56.60;;;25.59;42.38;95052.31;5076746;28;20529;-21
2023/09/16 08:21:43;;;;;;;0.30;0.30;;;25.50;56.70;;;25.59;42.76;95057.69;5077026;28;20203;-21
2023/09/16 08:24:11;;;;;;;0.30;0.30;;;25.50;56.70;;;25.60;42.69;95058.47;5078199;28;20196;-24
2023/09/16 08:26:38;;;;;;;0.30;0.30;;;25.50;56.80;;;25.61;42.65;95057.41;5077658;28;20239;-21
2023/09/16 08:29:05;;;;;;;0.30;0.30;;;25.50;56.70;;;25.62;42.66;95051.75;5077525;28;20744;-23
2023/09/16 08:31:32;;;;;;;0.30;0.30;;;25.50;56.80;;;25.64;42.81;95059.53;5077497;28;20195;-25
2023/09/16 08:34:03;;;;;;;0.40;0.40;;;25.50;56.80;;;25.64;42.59;95052.25;5077365;28;20210;-22
2023/09/16 08:36:30;;;;;;;0.30;0.30;;;25.50;56.80;;;25.65;42.57;95053.88;5077583;28;20187;-22
2023/09/16 08:38:57;;;;;;;0.35;0.35;;;25.50;56.80;;;25.67;42.87;95057.06;5077273;28;20196;-21
2023/09/16 08:42:05;;;;;;;0.30;0.30;;;25.50;56.80;;;25.69;42.91;95062.94;5077359;28;20195;-21
2023/09/16 08:44:37;;;;;;;0.40;0.40;;;25.50;56.80;;;25.68;42.53;95063.25;5077641;28;20187;-21
2023/09/16 08:47:10;;;;;;;0.45;0.45;;;25.60;57.00;;;25.69;42.73;95057.56;5076659;28;20190;-22
2023/09/16 08:49:46;;;;;;;0.30;0.30;;;25.60;56.90;;;25.72;42.91;95056.22;5077473;28;20199;-21
2023/09/16 08:52:16;;;;;;;0.30;0.30;;;25.60;57.00;;;25.75;42.76;95066.41;5060017;28;20202;-21
2023/09/16 08:54:47;;;;;;;0.32;0.32;;;25.60;57.00;;;25.75;42.62;95060.22;5076519;28;20192;-21
2023/09/16 08:57:16;;;;;;;0.40;0.40;;;25.60;56.90;;;25.78;42.92;95062.34;5077190;28;20277;-24
2023/09/16 08:59:44;;;;;;;0.30;0.30;;;25.60;56.90;;;25.79;42.54;95061.25;5077211;28;20219;-22
2023/09/16 09:02:11;;;;;;;0.38;0.38;;;25.60;56.90;;;25.81;42.67;95065.25;5076933;28;20198;-21
2023/09/16 09:04:42;;;;;;;0.30;0.30;;;25.60;57.00;;;25.82;42.60;95064.16;5077177;28;20197;-22
2023/09/16 09:07:11;;;;;;;0.30;0.30;;;25.70;57.10;;;25.84;43.06;95062.00;5076897;28;20196;-21
2023/09/16 09:09:38;;;;;;;0.40;0.40;;;25.70;57.00;;;25.82;42.69;95058.81;5077013;28;20233;-21
2023/09/16 09:12:07;;;;;;;0.30;0.30;;;25.70;57.00;;;25.87;43.02;95063.31;5076473;28;20710;-21
2023/09/16 09:14:36;;;;;;;0.35;0.35;;;25.70;57.10;;;25.88;42.87;95073.78;5076894;28;20267;-22
2023/09/16 09:17:03;;;;;;;0.40;0.40;;;25.70;57.00;;;25.91;42.65;95061.66;5059160;28;20215;-21
2023/09/16 09:19:31;;;;;;;0.30;0.30;;;25.70;57.00;;;25.93;42.46;95064.03;5075929;28;20235;-21
2023/09/16 09:22:00;;;;;;;0.30;0.30;;;25.70;57.00;;;25.92;42.71;95065.16;5075560;28;20200;-23
2023/09/16 09:24:28;;;;;;;0.32;0.32;;;25.80;57.20;;;25.94;42.98;95063.78;5075518;28;20215;-22
2023/09/16 09:26:55;;;;;;;0.30;0.30;;;25.70;57.10;;;25.97;42.51;95068.56;5075600;28;20196;-21
2023/09/16 09:29:22;;;;;;;0.40;0.40;;;25.80;57.20;;;25.98;42.97;95059.44;5076388;28;20211;-21
2023/09/16 09:31:50;;;;;;;0.40;0.40;;;25.80;57.10;;;26.00;42.80;95062.63;5075742;28;20268;-21
2023/09/16 09:34:18;;;;;;;0.30;0.30;;;25.80;57.00;;;26.01;42.87;95061.56;5075361;28;20222;-21
2023/09/16 09:36:46;;;;;;;0.30;0.30;;;25.80;57.00;;;26.04;42.83;95065.56;5076597;28;20224;-21
2023/09/16 09:39:14;;;;;;;0.30;0.30;;;25.80;57.00;;;26.05;42.66;95065.25;5076225;28;20639;-21
2023/09/16 09:41:46;;;;;;;0.30;0.30;;;25.90;58.30;;;26.07;42.75;95064.22;5076524;28;20212;-21
2023/09/16 09:44:14;;;;;;;0.25;0.25;;;25.90;57.00;;;26.08;42.68;95055.06;5042529;28;20197;-21
2023/09/16 09:46:41;;;;;;;0.30;0.30;;;25.90;57.00;;;26.10;42.63;95061.75;5076393;28;20192;-22
2023/09/16 09:49:11;;;;;;;0.32;0.32;;;25.90;57.00;;;26.11;43.11;95052.59;5058928;28;20204;-21
2023/09/16 09:51:39;;;;;;;0.40;0.40;;;25.90;57.10;;;26.14;42.86;95065.44;5075133;28;20627;-21
2023/09/16 09:54:10;;;;;;;0.40;0.40;;;25.90;57.10;;;26.15;42.68;95066.28;5075071;28;20225;-22
2023/09/16 09:56:37;;;;;;;0.30;0.30;;;25.90;57.20;;;26.14;42.63;95062.75;5075640;28;20524;-28
2023/09/16 09:59:04;;;;;;;0.30;0.30;;;25.90;57.20;;;26.14;42.61;95064.66;5076159;28;20192;-21
2023/09/16 10:01:32;;;;;;;0.30;0.30;;;26.00;57.30;;;26.18;42.65;95071.06;5074957;28;20553;-26
2023/09/16 10:04:03;;;;;;;0.30;0.30;;;26.00;57.30;;;26.19;42.91;95067.28;5076440;28;20214;-22
2023/09/16 10:06:30;;;;;;;0.30;0.30;;;26.00;57.30;;;26.17;43.02;95064.06;5076292;28;20185;-21
2023/09/16 10:08:57;;;;;;;0.30;0.30;;;26.00;57.50;;;26.21;42.82;95079.34;5075714;28;20196;-21
2023/09/16 10:11:28;;;;;;;0.30;0.30;;;26.00;57.30;;;26.20;42.69;95072.38;5075966;28;20196;-21
2023/09/16 10:13:55;;;;;;;0.38;0.38;;;26.00;57.30;;;26.24;43.12;95063.75;5075012;28;20544;-21
2023/09/16 10:16:23;;;;;;;0.30;0.30;;;26.00;57.30;;;26.25;42.73;95066.13;5075382;28;20196;-22
2023/09/16 10:18:52;;;;;;;0.40;0.40;;;26.00;57.20;;;26.24;43.04;95059.16;5075834;28;20264;-22
2023/09/16 10:21:19;;;;;;;0.30;0.30;;;26.00;57.30;;;26.26;42.97;95048.91;5074851;28;20220;-21
2023/09/16 10:23:47;;;;;;;0.30;0.30;;;26.00;57.30;;;26.27;42.69;95049.69;5074064;28;20192;-21
2023/09/16 10:26:16;;;;;;;0.30;0.30;;;26.10;57.30;;;26.28;43.28;95051.31;5075358;28;20632;-21